Gonggar, China
Current Conditions -  °F | °C
As of 10:50 AM on Friday 28 Nov 2014 (Local Time) from VQPR Reporting Station
Broken Clouds Broken Clouds  
Wind Chill: 44°   Ceiling: 6000
Heat Index: 46°   Visibility: 4mi
Dew Point: 36°   Wind: 6mph
Humidity: 66%   Direction: 150°SSE
Pressure: 30.15"   Gusts: NA
Location:  29.25°N, 90.83°E
Report Text: VQPR 280250Z 15005KT 6000 SCT010 SCT020 BKN060 08/02 Q1021 NOSIG
Loading
Personal Weather Stations






























Interactive Weather Map New forecast layout! Learn more

10-Day Weather Forecast

Advertisements
Track Severe Weather on mobile